sensor_id;sensor_type;location;lat;lon;timestamp;P1;durP1;ratioP1;P2;durP2;ratioP2
57057;SDS011;55017;52.848;6.748;2022-11-23T00:01:34;146.00;;;140.00;;
57057;SDS011;55017;52.848;6.748;2022-11-23T00:04:04;143.50;;;137.52;;
57057;SDS011;55017;52.848;6.748;2022-11-23T00:06:32;145.60;;;139.35;;
57057;SDS011;55017;52.848;6.748;2022-11-23T00:08:59;144.60;;;138.63;;
57057;SDS011;55017;52.848;6.748;2022-11-23T00:11:25;146.07;;;139.88;;
57057;SDS011;55017;52.848;6.748;2022-11-23T00:13:52;146.60;;;140.35;;
57057;SDS011;55017;52.848;6.748;2022-11-23T00:16:19;145.05;;;138.90;;
57057;SDS011;55017;52.848;6.748;2022-11-23T00:18:46;145.32;;;138.95;;
57057;SDS011;55017;52.848;6.748;2022-11-23T00:21:12;141.98;;;135.98;;
57057;SDS011;55017;52.848;6.748;2022-11-23T00:23:39;142.60;;;136.53;;
57057;SDS011;55017;52.848;6.748;2022-11-23T00:26:05;144.68;;;138.77;;
57057;SDS011;55017;52.848;6.748;2022-11-23T00:28:32;147.63;;;141.02;;
57057;SDS011;55017;52.848;6.748;2022-11-23T00:30:59;142.35;;;136.35;;
57057;SDS011;55017;52.848;6.748;2022-11-23T00:33:24;147.48;;;141.55;;
57057;SDS011;55017;52.848;6.748;2022-11-23T00:36:03;142.98;;;137.20;;
57057;SDS011;55017;52.848;6.748;2022-11-23T00:38:34;140.02;;;134.20;;
57057;SDS011;55017;52.848;6.748;2022-11-23T00:41:01;143.25;;;137.48;;
57057;SDS011;55017;52.848;6.748;2022-11-23T00:43:31;136.48;;;130.82;;
57057;SDS011;55017;52.848;6.748;2022-11-23T00:46:00;145.45;;;139.85;;
57057;SDS011;55017;52.848;6.748;2022-11-23T00:48:34;138.65;;;132.88;;
57057;SDS011;55017;52.848;6.748;2022-11-23T00:51:00;139.20;;;133.63;;
57057;SDS011;55017;52.848;6.748;2022-11-23T00:53:28;137.85;;;132.40;;
57057;SDS011;55017;52.848;6.748;2022-11-23T00:55:54;138.75;;;133.30;;
57057;SDS011;55017;52.848;6.748;2022-11-23T00:58:20;141.40;;;135.75;;
57057;SDS011;55017;52.848;6.748;2022-11-23T01:00:46;141.40;;;135.68;;
57057;SDS011;55017;52.848;6.748;2022-11-23T01:03:12;140.13;;;134.52;;
57057;SDS011;55017;52.848;6.748;2022-11-23T01:05:39;141.88;;;136.13;;
57057;SDS011;55017;52.848;6.748;2022-11-23T01:08:05;144.23;;;138.40;;
57057;SDS011;55017;52.848;6.748;2022-11-23T01:10:31;137.32;;;131.65;;
57057;SDS011;55017;52.848;6.748;2022-11-23T01:12:57;139.13;;;133.55;;
57057;SDS011;55017;52.848;6.748;2022-11-23T01:15:23;141.35;;;135.63;;
57057;SDS011;55017;52.848;6.748;2022-11-23T01:17:49;142.20;;;136.63;;
57057;SDS011;55017;52.848;6.748;2022-11-23T01:20:15;136.52;;;131.02;;
57057;SDS011;55017;52.848;6.748;2022-11-23T01:22:40;139.25;;;133.73;;
57057;SDS011;55017;52.848;6.748;2022-11-23T01:25:06;140.90;;;135.35;;
57057;SDS011;55017;52.848;6.748;2022-11-23T01:27:32;137.00;;;131.27;;
57057;SDS011;55017;52.848;6.748;2022-11-23T01:29:58;143.43;;;137.70;;
57057;SDS011;55017;52.848;6.748;2022-11-23T01:32:24;135.95;;;130.57;;
57057;SDS011;55017;52.848;6.748;2022-11-23T01:34:50;139.32;;;133.73;;
57057;SDS011;55017;52.848;6.748;2022-11-23T01:37:15;137.90;;;132.55;;
57057;SDS011;55017;52.848;6.748;2022-11-23T01:39:41;137.18;;;131.80;;
57057;SDS011;55017;52.848;6.748;2022-11-23T01:42:06;139.50;;;133.90;;
57057;SDS011;55017;52.848;6.748;2022-11-23T01:44:33;137.68;;;132.20;;
57057;SDS011;55017;52.848;6.748;2022-11-23T01:47:03;137.35;;;132.15;;
57057;SDS011;55017;52.848;6.748;2022-11-23T01:49:40;139.88;;;134.57;;
57057;SDS011;55017;52.848;6.748;2022-11-23T01:52:09;137.73;;;132.43;;
57057;SDS011;55017;52.848;6.748;2022-11-23T01:54:45;139.40;;;134.13;;
57057;SDS011;55017;52.848;6.748;2022-11-23T01:57:24;135.88;;;130.50;;
57057;SDS011;55017;52.848;6.748;2022-11-23T02:00:03;137.80;;;132.50;;
57057;SDS011;55017;52.848;6.748;2022-11-23T02:02:29;133.52;;;128.57;;
57057;SDS011;55017;52.848;6.748;2022-11-23T02:04:58;136.68;;;131.52;;
57057;SDS011;55017;52.848;6.748;2022-11-23T02:07:25;134.32;;;129.23;;
57057;SDS011;55017;52.848;6.748;2022-11-23T02:09:52;136.70;;;131.55;;
57057;SDS011;55017;52.848;6.748;2022-11-23T02:12:18;136.43;;;131.27;;
57057;SDS011;55017;52.848;6.748;2022-11-23T02:14:43;136.55;;;131.27;;
57057;SDS011;55017;52.848;6.748;2022-11-23T02:17:09;136.82;;;131.75;;
57057;SDS011;55017;52.848;6.748;2022-11-23T02:19:39;136.95;;;131.50;;
57057;SDS011;55017;52.848;6.748;2022-11-23T02:25:29;136.23;;;130.90;;
57057;SDS011;55017;52.848;6.748;2022-11-23T02:28:13;136.48;;;131.23;;
57057;SDS011;55017;52.848;6.748;2022-11-23T02:30:43;140.50;;;135.10;;
57057;SDS011;55017;52.848;6.748;2022-11-23T02:33:11;142.60;;;137.00;;
57057;SDS011;55017;52.848;6.748;2022-11-23T02:35:45;136.52;;;131.07;;
57057;SDS011;55017;52.848;6.748;2022-11-23T02:38:23;137.73;;;132.55;;
57057;SDS011;55017;52.848;6.748;2022-11-23T02:40:52;139.95;;;134.73;;
57057;SDS011;55017;52.848;6.748;2022-11-23T02:43:18;139.85;;;134.43;;
57057;SDS011;55017;52.848;6.748;2022-11-23T02:45:57;141.23;;;135.80;;
57057;SDS011;55017;52.848;6.748;2022-11-23T02:48:25;139.10;;;133.45;;
57057;SDS011;55017;52.848;6.748;2022-11-23T02:50:51;141.40;;;135.88;;
57057;SDS011;55017;52.848;6.748;2022-11-23T02:53:17;139.80;;;134.35;;
57057;SDS011;55017;52.848;6.748;2022-11-23T02:55:43;138.88;;;133.70;;
57057;SDS011;55017;52.848;6.748;2022-11-23T02:58:08;139.38;;;133.88;;
57057;SDS011;55017;52.848;6.748;2022-11-23T03:00:34;143.82;;;138.07;;
57057;SDS011;55017;52.848;6.748;2022-11-23T03:03:00;138.15;;;132.93;;
57057;SDS011;55017;52.848;6.748;2022-11-23T03:05:27;136.38;;;131.07;;
57057;SDS011;55017;52.848;6.748;2022-11-23T03:07:53;139.55;;;133.98;;
57057;SDS011;55017;52.848;6.748;2022-11-23T03:10:18;139.23;;;133.82;;
57057;SDS011;55017;52.848;6.748;2022-11-23T03:12:45;136.63;;;131.30;;
57057;SDS011;55017;52.848;6.748;2022-11-23T03:15:11;143.20;;;137.10;;
57057;SDS011;55017;52.848;6.748;2022-11-23T03:17:37;135.05;;;129.90;;
57057;SDS011;55017;52.848;6.748;2022-11-23T03:20:03;137.27;;;131.85;;
57057;SDS011;55017;52.848;6.748;2022-11-23T03:22:29;138.98;;;133.45;;
57057;SDS011;55017;52.848;6.748;2022-11-23T03:24:54;136.20;;;130.65;;
57057;SDS011;55017;52.848;6.748;2022-11-23T03:27:21;138.07;;;132.43;;
57057;SDS011;55017;52.848;6.748;2022-11-23T03:29:47;140.77;;;134.95;;
57057;SDS011;55017;52.848;6.748;2022-11-23T03:32:12;135.82;;;130.32;;
57057;SDS011;55017;52.848;6.748;2022-11-23T03:34:38;141.65;;;135.55;;
57057;SDS011;55017;52.848;6.748;2022-11-23T03:37:03;137.80;;;131.80;;
57057;SDS011;55017;52.848;6.748;2022-11-23T03:39:29;147.30;;;141.20;;
57057;SDS011;55017;52.848;6.748;2022-11-23T03:41:55;139.45;;;133.75;;
57057;SDS011;55017;52.848;6.748;2022-11-23T03:44:20;139.05;;;133.38;;
57057;SDS011;55017;52.848;6.748;2022-11-23T03:46:46;140.85;;;134.93;;
57057;SDS011;55017;52.848;6.748;2022-11-23T03:49:11;139.13;;;133.45;;
57057;SDS011;55017;52.848;6.748;2022-11-23T03:51:37;143.35;;;137.10;;
57057;SDS011;55017;52.848;6.748;2022-11-23T03:54:03;143.15;;;137.23;;
57057;SDS011;55017;52.848;6.748;2022-11-23T03:56:28;144.82;;;138.48;;
57057;SDS011;55017;52.848;6.748;2022-11-23T03:58:54;141.90;;;135.90;;
57057;SDS011;55017;52.848;6.748;2022-11-23T04:01:19;143.18;;;137.43;;
57057;SDS011;55017;52.848;6.748;2022-11-23T04:03:45;140.07;;;134.18;;
57057;SDS011;55017;52.848;6.748;2022-11-23T04:06:11;144.18;;;138.07;;
57057;SDS011;55017;52.848;6.748;2022-11-23T04:08:36;139.45;;;133.68;;
57057;SDS011;55017;52.848;6.748;2022-11-23T04:11:02;142.50;;;136.38;;
57057;SDS011;55017;52.848;6.748;2022-11-23T04:13:27;145.35;;;138.98;;
57057;SDS011;55017;52.848;6.748;2022-11-23T04:15:53;143.77;;;137.73;;
57057;SDS011;55017;52.848;6.748;2022-11-23T04:18:18;144.68;;;138.23;;
57057;SDS011;55017;52.848;6.748;2022-11-23T04:20:44;141.93;;;135.55;;
57057;SDS011;55017;52.848;6.748;2022-11-23T04:23:10;139.95;;;133.95;;
57057;SDS011;55017;52.848;6.748;2022-11-23T04:25:35;143.90;;;137.77;;
57057;SDS011;55017;52.848;6.748;2022-11-23T04:28:01;142.35;;;136.10;;
57057;SDS011;55017;52.848;6.748;2022-11-23T04:30:26;148.40;;;141.75;;
57057;SDS011;55017;52.848;6.748;2022-11-23T04:32:52;141.02;;;134.85;;
57057;SDS011;55017;52.848;6.748;2022-11-23T04:35:17;141.50;;;135.45;;
57057;SDS011;55017;52.848;6.748;2022-11-23T04:37:43;141.85;;;135.55;;
57057;SDS011;55017;52.848;6.748;2022-11-23T04:40:09;142.98;;;136.52;;
57057;SDS011;55017;52.848;6.748;2022-11-23T04:42:35;144.25;;;137.73;;
57057;SDS011;55017;52.848;6.748;2022-11-23T04:45:00;144.40;;;138.00;;
57057;SDS011;55017;52.848;6.748;2022-11-23T04:47:26;145.27;;;139.02;;
57057;SDS011;55017;52.848;6.748;2022-11-23T04:49:52;145.95;;;139.23;;
57057;SDS011;55017;52.848;6.748;2022-11-23T04:52:17;147.07;;;140.57;;
57057;SDS011;55017;52.848;6.748;2022-11-23T04:54:43;139.80;;;133.30;;
57057;SDS011;55017;52.848;6.748;2022-11-23T04:57:09;140.43;;;134.00;;
57057;SDS011;55017;52.848;6.748;2022-11-23T04:59:34;144.82;;;138.18;;
57057;SDS011;55017;52.848;6.748;2022-11-23T05:02:00;145.85;;;139.27;;
57057;SDS011;55017;52.848;6.748;2022-11-23T05:04:26;142.25;;;135.98;;
57057;SDS011;55017;52.848;6.748;2022-11-23T05:06:51;144.68;;;138.50;;
57057;SDS011;55017;52.848;6.748;2022-11-23T05:09:17;144.18;;;137.40;;
57057;SDS011;55017;52.848;6.748;2022-11-23T05:11:43;142.40;;;135.73;;
57057;SDS011;55017;52.848;6.748;2022-11-23T05:14:08;142.88;;;136.73;;
57057;SDS011;55017;52.848;6.748;2022-11-23T05:16:34;140.57;;;134.73;;
57057;SDS011;55017;52.848;6.748;2022-11-23T05:19:00;146.40;;;140.05;;
57057;SDS011;55017;52.848;6.748;2022-11-23T05:21:25;145.25;;;138.65;;
57057;SDS011;55017;52.848;6.748;2022-11-23T05:23:51;146.70;;;140.10;;
57057;SDS011;55017;52.848;6.748;2022-11-23T05:26:17;143.73;;;137.07;;
57057;SDS011;55017;52.848;6.748;2022-11-23T05:28:42;143.55;;;137.48;;
57057;SDS011;55017;52.848;6.748;2022-11-23T05:31:08;142.20;;;136.05;;
57057;SDS011;55017;52.848;6.748;2022-11-23T05:33:34;140.38;;;134.27;;
57057;SDS011;55017;52.848;6.748;2022-11-23T05:36:00;147.25;;;140.73;;
57057;SDS011;55017;52.848;6.748;2022-11-23T05:38:26;141.00;;;134.88;;
57057;SDS011;55017;52.848;6.748;2022-11-23T05:40:51;141.13;;;135.40;;
57057;SDS011;55017;52.848;6.748;2022-11-23T05:43:17;144.10;;;137.88;;
57057;SDS011;55017;52.848;6.748;2022-11-23T05:45:43;137.45;;;131.52;;
57057;SDS011;55017;52.848;6.748;2022-11-23T05:48:08;138.57;;;132.65;;
57057;SDS011;55017;52.848;6.748;2022-11-23T05:50:34;138.20;;;131.98;;
57057;SDS011;55017;52.848;6.748;2022-11-23T05:53:00;138.77;;;132.85;;
57057;SDS011;55017;52.848;6.748;2022-11-23T05:55:26;140.63;;;134.75;;
57057;SDS011;55017;52.848;6.748;2022-11-23T05:57:52;137.13;;;131.23;;
57057;SDS011;55017;52.848;6.748;2022-11-23T06:00:18;140.27;;;134.48;;
57057;SDS011;55017;52.848;6.748;2022-11-23T06:02:44;137.48;;;132.05;;
57057;SDS011;55017;52.848;6.748;2022-11-23T06:05:10;140.85;;;135.07;;
57057;SDS011;55017;52.848;6.748;2022-11-23T06:07:36;137.25;;;131.32;;
57057;SDS011;55017;52.848;6.748;2022-11-23T06:10:02;132.05;;;126.80;;
57057;SDS011;55017;52.848;6.748;2022-11-23T06:12:29;136.60;;;131.02;;
57057;SDS011;55017;52.848;6.748;2022-11-23T06:14:54;135.95;;;130.27;;
57057;SDS011;55017;52.848;6.748;2022-11-23T06:17:20;137.10;;;131.65;;
57057;SDS011;55017;52.848;6.748;2022-11-23T06:19:46;136.07;;;130.57;;
57057;SDS011;55017;52.848;6.748;2022-11-23T06:22:12;135.15;;;130.05;;
57057;SDS011;55017;52.848;6.748;2022-11-23T06:24:37;136.32;;;130.73;;
57057;SDS011;55017;52.848;6.748;2022-11-23T06:27:03;135.20;;;130.02;;
57057;SDS011;55017;52.848;6.748;2022-11-23T06:29:29;134.52;;;129.02;;
57057;SDS011;55017;52.848;6.748;2022-11-23T06:31:54;135.52;;;129.90;;
57057;SDS011;55017;52.848;6.748;2022-11-23T06:34:20;131.57;;;126.63;;
57057;SDS011;55017;52.848;6.748;2022-11-23T06:36:45;134.35;;;128.90;;
57057;SDS011;55017;52.848;6.748;2022-11-23T06:39:11;132.60;;;127.38;;
57057;SDS011;55017;52.848;6.748;2022-11-23T06:41:37;138.77;;;133.35;;
57057;SDS011;55017;52.848;6.748;2022-11-23T06:44:03;134.48;;;128.77;;
57057;SDS011;55017;52.848;6.748;2022-11-23T06:46:29;136.63;;;130.90;;
57057;SDS011;55017;52.848;6.748;2022-11-23T06:48:55;136.63;;;131.50;;
57057;SDS011;55017;52.848;6.748;2022-11-23T06:51:21;137.82;;;132.48;;
57057;SDS011;55017;52.848;6.748;2022-11-23T06:53:46;134.77;;;129.30;;
57057;SDS011;55017;52.848;6.748;2022-11-23T06:56:12;134.38;;;128.98;;
57057;SDS011;55017;52.848;6.748;2022-11-23T06:58:37;135.07;;;129.82;;
57057;SDS011;55017;52.848;6.748;2022-11-23T07:01:04;135.15;;;129.70;;
57057;SDS011;55017;52.848;6.748;2022-11-23T07:03:32;136.40;;;130.90;;
57057;SDS011;55017;52.848;6.748;2022-11-23T07:06:02;136.45;;;130.88;;
57057;SDS011;55017;52.848;6.748;2022-11-23T07:08:29;134.18;;;128.65;;
57057;SDS011;55017;52.848;6.748;2022-11-23T07:10:58;133.45;;;128.45;;
57057;SDS011;55017;52.848;6.748;2022-11-23T07:13:24;133.88;;;128.65;;
57057;SDS011;55017;52.848;6.748;2022-11-23T07:15:50;131.40;;;126.32;;
57057;SDS011;55017;52.848;6.748;2022-11-23T07:18:16;137.48;;;131.90;;
57057;SDS011;55017;52.848;6.748;2022-11-23T07:20:41;135.57;;;129.80;;
57057;SDS011;55017;52.848;6.748;2022-11-23T07:23:08;134.60;;;129.23;;
57057;SDS011;55017;52.848;6.748;2022-11-23T07:25:35;137.45;;;132.00;;
57057;SDS011;55017;52.848;6.748;2022-11-23T07:28:02;133.40;;;127.95;;
57057;SDS011;55017;52.848;6.748;2022-11-23T07:30:29;135.43;;;129.90;;
57057;SDS011;55017;52.848;6.748;2022-11-23T07:33:02;137.20;;;131.73;;
57057;SDS011;55017;52.848;6.748;2022-11-23T07:35:29;133.18;;;127.35;;
57057;SDS011;55017;52.848;6.748;2022-11-23T07:37:57;133.18;;;128.25;;
57057;SDS011;55017;52.848;6.748;2022-11-23T07:40:23;133.20;;;127.78;;
57057;SDS011;55017;52.848;6.748;2022-11-23T07:42:50;134.15;;;128.75;;
57057;SDS011;55017;52.848;6.748;2022-11-23T07:45:16;133.50;;;127.95;;
57057;SDS011;55017;52.848;6.748;2022-11-23T07:47:41;132.15;;;127.05;;
57057;SDS011;55017;52.848;6.748;2022-11-23T07:50:07;130.02;;;125.00;;
57057;SDS011;55017;52.848;6.748;2022-11-23T07:52:37;135.75;;;130.45;;
57057;SDS011;55017;52.848;6.748;2022-11-23T07:55:03;133.05;;;127.93;;
57057;SDS011;55017;52.848;6.748;2022-11-23T07:57:30;132.25;;;127.05;;
57057;SDS011;55017;52.848;6.748;2022-11-23T07:59:57;132.70;;;127.50;;
57057;SDS011;55017;52.848;6.748;2022-11-23T08:02:22;136.38;;;130.50;;
57057;SDS011;55017;52.848;6.748;2022-11-23T08:04:48;133.13;;;128.07;;
57057;SDS011;55017;52.848;6.748;2022-11-23T08:07:13;133.40;;;128.18;;
57057;SDS011;55017;52.848;6.748;2022-11-23T08:09:39;134.15;;;129.15;;
57057;SDS011;55017;52.848;6.748;2022-11-23T08:12:05;133.95;;;128.60;;
57057;SDS011;55017;52.848;6.748;2022-11-23T08:14:31;132.80;;;127.63;;
57057;SDS011;55017;52.848;6.748;2022-11-23T08:16:56;132.75;;;127.65;;
57057;SDS011;55017;52.848;6.748;2022-11-23T08:19:22;132.48;;;127.43;;
57057;SDS011;55017;52.848;6.748;2022-11-23T08:21:47;136.27;;;130.70;;
57057;SDS011;55017;52.848;6.748;2022-11-23T08:24:13;135.13;;;130.07;;
57057;SDS011;55017;52.848;6.748;2022-11-23T08:26:39;132.18;;;126.97;;
57057;SDS011;55017;52.848;6.748;2022-11-23T08:29:04;139.90;;;134.40;;
57057;SDS011;55017;52.848;6.748;2022-11-23T08:31:30;134.90;;;129.40;;
57057;SDS011;55017;52.848;6.748;2022-11-23T08:33:56;134.70;;;129.55;;
57057;SDS011;55017;52.848;6.748;2022-11-23T08:36:22;131.15;;;125.72;;
57057;SDS011;55017;52.848;6.748;2022-11-23T08:38:48;134.60;;;129.48;;
57057;SDS011;55017;52.848;6.748;2022-11-23T08:41:15;133.88;;;128.35;;
57057;SDS011;55017;52.848;6.748;2022-11-23T08:43:45;132.50;;;127.35;;
57057;SDS011;55017;52.848;6.748;2022-11-23T08:46:11;133.43;;;127.93;;
57057;SDS011;55017;52.848;6.748;2022-11-23T08:48:36;133.65;;;128.52;;
57057;SDS011;55017;52.848;6.748;2022-11-23T08:51:02;132.98;;;128.00;;
57057;SDS011;55017;52.848;6.748;2022-11-23T08:53:28;132.40;;;127.03;;
57057;SDS011;55017;52.848;6.748;2022-11-23T08:55:53;130.57;;;125.32;;
57057;SDS011;55017;52.848;6.748;2022-11-23T08:58:19;131.77;;;126.60;;
57057;SDS011;55017;52.848;6.748;2022-11-23T09:00:45;132.18;;;126.85;;
57057;SDS011;55017;52.848;6.748;2022-11-23T09:03:10;131.38;;;125.85;;
57057;SDS011;55017;52.848;6.748;2022-11-23T09:05:36;133.07;;;127.53;;
57057;SDS011;55017;52.848;6.748;2022-11-23T09:08:03;128.25;;;122.90;;
57057;SDS011;55017;52.848;6.748;2022-11-23T09:10:29;132.00;;;126.78;;
57057;SDS011;55017;52.848;6.748;2022-11-23T09:12:54;129.50;;;124.35;;
57057;SDS011;55017;52.848;6.748;2022-11-23T09:15:20;128.38;;;123.13;;
57057;SDS011;55017;52.848;6.748;2022-11-23T09:17:45;128.27;;;123.20;;
57057;SDS011;55017;52.848;6.748;2022-11-23T09:20:11;130.75;;;125.45;;
57057;SDS011;55017;52.848;6.748;2022-11-23T09:22:37;128.05;;;122.88;;
57057;SDS011;55017;52.848;6.748;2022-11-23T09:25:03;129.52;;;124.32;;
57057;SDS011;55017;52.848;6.748;2022-11-23T09:27:29;131.88;;;126.72;;
57057;SDS011;55017;52.848;6.748;2022-11-23T09:29:54;128.55;;;123.70;;
57057;SDS011;55017;52.848;6.748;2022-11-23T09:32:20;131.73;;;126.35;;
57057;SDS011;55017;52.848;6.748;2022-11-23T09:34:46;132.38;;;127.05;;
57057;SDS011;55017;52.848;6.748;2022-11-23T09:37:11;129.82;;;124.50;;
57057;SDS011;55017;52.848;6.748;2022-11-23T09:39:38;131.85;;;126.60;;
57057;SDS011;55017;52.848;6.748;2022-11-23T09:44:47;130.93;;;125.80;;
57057;SDS011;55017;52.848;6.748;2022-11-23T09:47:31;130.85;;;125.60;;
57057;SDS011;55017;52.848;6.748;2022-11-23T09:50:14;132.73;;;127.57;;
57057;SDS011;55017;52.848;6.748;2022-11-23T09:52:47;131.50;;;126.30;;
57057;SDS011;55017;52.848;6.748;2022-11-23T09:55:19;133.82;;;128.68;;
57057;SDS011;55017;52.848;6.748;2022-11-23T09:57:59;132.50;;;127.28;;
57057;SDS011;55017;52.848;6.748;2022-11-23T10:00:27;127.18;;;121.68;;
57057;SDS011;55017;52.848;6.748;2022-11-23T10:03:00;130.30;;;124.95;;
57057;SDS011;55017;52.848;6.748;2022-11-23T10:05:26;129.38;;;124.18;;
57057;SDS011;55017;52.848;6.748;2022-11-23T10:10:57;130.57;;;125.18;;
57057;SDS011;55017;52.848;6.748;2022-11-23T10:13:50;131.55;;;125.93;;
57057;SDS011;55017;52.848;6.748;2022-11-23T10:19:24;130.15;;;125.03;;
57057;SDS011;55017;52.848;6.748;2022-11-23T10:22:19;130.07;;;124.82;;
57057;SDS011;55017;52.848;6.748;2022-11-23T10:24:51;131.07;;;125.57;;
57057;SDS011;55017;52.848;6.748;2022-11-23T10:27:19;128.82;;;123.50;;
57057;SDS011;55017;52.848;6.748;2022-11-23T10:35:12;127.75;;;122.28;;
57057;SDS011;55017;52.848;6.748;2022-11-23T10:38:17;131.13;;;125.78;;
57057;SDS011;55017;52.848;6.748;2022-11-23T10:41:05;134.50;;;128.93;;
57057;SDS011;55017;52.848;6.748;2022-11-23T10:43:54;134.57;;;129.38;;
57057;SDS011;55017;52.848;6.748;2022-11-23T10:57:00;128.55;;;123.30;;
57057;SDS011;55017;52.848;6.748;2022-11-23T10:59:29;131.88;;;126.88;;
57057;SDS011;55017;52.848;6.748;2022-11-23T11:02:15;126.82;;;121.47;;
57057;SDS011;55017;52.848;6.748;2022-11-23T11:04:43;134.03;;;128.57;;
57057;SDS011;55017;52.848;6.748;2022-11-23T11:09:56;131.15;;;126.00;;
57057;SDS011;55017;52.848;6.748;2022-11-23T11:12:24;130.82;;;125.78;;
57057;SDS011;55017;52.848;6.748;2022-11-23T11:17:32;131.45;;;126.30;;
57057;SDS011;55017;52.848;6.748;2022-11-23T11:19:59;126.30;;;121.55;;
57057;SDS011;55017;52.848;6.748;2022-11-23T11:22:26;124.93;;;119.82;;
57057;SDS011;55017;52.848;6.748;2022-11-23T11:24:57;126.05;;;120.95;;
57057;SDS011;55017;52.848;6.748;2022-11-23T11:27:23;121.75;;;117.13;;
57057;SDS011;55017;52.848;6.748;2022-11-23T11:29:53;123.95;;;119.22;;
57057;SDS011;55017;52.848;6.748;2022-11-23T11:32:27;118.97;;;114.45;;
57057;SDS011;55017;52.848;6.748;2022-11-23T11:34:59;120.35;;;115.85;;
57057;SDS011;55017;52.848;6.748;2022-11-23T11:37:47;119.78;;;115.13;;
57057;SDS011;55017;52.848;6.748;2022-11-23T11:42:53;120.00;;;115.32;;
57057;SDS011;55017;52.848;6.748;2022-11-23T11:45:37;115.65;;;111.07;;
57057;SDS011;55017;52.848;6.748;2022-11-23T11:48:08;114.35;;;110.07;;
57057;SDS011;55017;52.848;6.748;2022-11-23T11:50:46;112.53;;;108.40;;
57057;SDS011;55017;52.848;6.748;2022-11-23T11:53:27;109.68;;;105.57;;
57057;SDS011;55017;52.848;6.748;2022-11-23T11:56:05;112.43;;;108.10;;
57057;SDS011;55017;52.848;6.748;2022-11-23T11:58:38;108.00;;;104.07;;
57057;SDS011;55017;52.848;6.748;2022-11-23T12:04:03;107.95;;;103.90;;
57057;SDS011;55017;52.848;6.748;2022-11-23T12:06:33;108.43;;;104.25;;
57057;SDS011;55017;52.848;6.748;2022-11-23T12:09:38;109.05;;;104.95;;
57057;SDS011;55017;52.848;6.748;2022-11-23T12:11:56;106.90;;;102.97;;
57057;SDS011;55017;52.848;6.748;2022-11-23T12:14:22;109.18;;;104.97;;
57057;SDS011;55017;52.848;6.748;2022-11-23T12:16:56;109.30;;;105.22;;
57057;SDS011;55017;52.848;6.748;2022-11-23T12:19:38;110.50;;;106.22;;
57057;SDS011;55017;52.848;6.748;2022-11-23T12:22:26;110.25;;;105.85;;
57057;SDS011;55017;52.848;6.748;2022-11-23T12:36:35;112.43;;;108.22;;
57057;SDS011;55017;52.848;6.748;2022-11-23T12:53:27;119.78;;;115.22;;
57057;SDS011;55017;52.848;6.748;2022-11-23T12:58:51;117.47;;;113.07;;
57057;SDS011;55017;52.848;6.748;2022-11-23T13:01:23;119.57;;;115.13;;
57057;SDS011;55017;52.848;6.748;2022-11-23T13:07:09;120.97;;;116.70;;
57057;SDS011;55017;52.848;6.748;2022-11-23T13:21:40;121.53;;;117.32;;
57057;SDS011;55017;52.848;6.748;2022-11-23T13:24:23;121.72;;;117.18;;
57057;SDS011;55017;52.848;6.748;2022-11-23T13:35:43;121.90;;;117.63;;
57057;SDS011;55017;52.848;6.748;2022-11-23T13:40:23;120.88;;;116.35;;
57057;SDS011;55017;52.848;6.748;2022-11-23T13:42:50;124.00;;;119.30;;
57057;SDS011;55017;52.848;6.748;2022-11-23T13:48:01;125.20;;;120.65;;
57057;SDS011;55017;52.848;6.748;2022-11-23T13:50:29;122.40;;;117.97;;
57057;SDS011;55017;52.848;6.748;2022-11-23T13:52:56;124.25;;;119.80;;
57057;SDS011;55017;52.848;6.748;2022-11-23T13:55:27;122.63;;;118.38;;
57057;SDS011;55017;52.848;6.748;2022-11-23T14:06:44;122.90;;;118.43;;
57057;SDS011;55017;52.848;6.748;2022-11-23T14:09:20;126.10;;;121.63;;
57057;SDS011;55017;52.848;6.748;2022-11-23T14:11:59;123.00;;;118.60;;
57057;SDS011;55017;52.848;6.748;2022-11-23T14:14:48;121.78;;;117.20;;
57057;SDS011;55017;52.848;6.748;2022-11-23T14:20:01;124.40;;;119.95;;
57057;SDS011;55017;52.848;6.748;2022-11-23T14:28:20;121.65;;;117.00;;
57057;SDS011;55017;52.848;6.748;2022-11-23T14:37:04;127.50;;;123.00;;
57057;SDS011;55017;52.848;6.748;2022-11-23T14:42:55;124.55;;;119.70;;
57057;SDS011;55017;52.848;6.748;2022-11-23T14:45:22;125.82;;;121.40;;
57057;SDS011;55017;52.848;6.748;2022-11-23T14:47:52;122.07;;;117.68;;
57057;SDS011;55017;52.848;6.748;2022-11-23T14:52:46;118.63;;;114.47;;
57057;SDS011;55017;52.848;6.748;2022-11-23T14:55:28;121.68;;;117.38;;
57057;SDS011;55017;52.848;6.748;2022-11-23T14:57:59;122.38;;;118.13;;
57057;SDS011;55017;52.848;6.748;2022-11-23T15:03:05;121.25;;;116.90;;
57057;SDS011;55017;52.848;6.748;2022-11-23T15:05:39;122.03;;;117.72;;
57057;SDS011;55017;52.848;6.748;2022-11-23T15:10:57;119.78;;;115.72;;
57057;SDS011;55017;52.848;6.748;2022-11-23T15:13:31;122.32;;;117.95;;
57057;SDS011;55017;52.848;6.748;2022-11-23T15:16:08;122.45;;;118.22;;
57057;SDS011;55017;52.848;6.748;2022-11-23T15:18:36;123.93;;;119.50;;
57057;SDS011;55017;52.848;6.748;2022-11-23T15:23:35;121.60;;;117.38;;
57057;SDS011;55017;52.848;6.748;2022-11-23T15:26:05;121.55;;;117.22;;
57057;SDS011;55017;52.848;6.748;2022-11-23T15:28:36;123.22;;;119.13;;
57057;SDS011;55017;52.848;6.748;2022-11-23T15:31:15;123.55;;;119.15;;
57057;SDS011;55017;52.848;6.748;2022-11-23T15:33:44;122.30;;;118.05;;
57057;SDS011;55017;52.848;6.748;2022-11-23T15:36:12;120.82;;;116.43;;
57057;SDS011;55017;52.848;6.748;2022-11-23T15:38:38;123.97;;;119.35;;
57057;SDS011;55017;52.848;6.748;2022-11-23T15:41:04;123.63;;;119.30;;
57057;SDS011;55017;52.848;6.748;2022-11-23T15:43:30;122.70;;;118.28;;
57057;SDS011;55017;52.848;6.748;2022-11-23T15:45:59;123.65;;;119.35;;
57057;SDS011;55017;52.848;6.748;2022-11-23T15:48:29;122.20;;;118.00;;
57057;SDS011;55017;52.848;6.748;2022-11-23T15:50:58;123.70;;;119.47;;
57057;SDS011;55017;52.848;6.748;2022-11-23T15:53:45;124.15;;;119.78;;
57057;SDS011;55017;52.848;6.748;2022-11-23T15:58:48;122.75;;;118.50;;
57057;SDS011;55017;52.848;6.748;2022-11-23T16:01:14;126.57;;;122.15;;
57057;SDS011;55017;52.848;6.748;2022-11-23T16:03:46;123.32;;;119.00;;
57057;SDS011;55017;52.848;6.748;2022-11-23T16:06:36;125.25;;;120.90;;
57057;SDS011;55017;52.848;6.748;2022-11-23T16:12:04;124.57;;;120.38;;
57057;SDS011;55017;52.848;6.748;2022-11-23T16:14:54;127.70;;;123.30;;
57057;SDS011;55017;52.848;6.748;2022-11-23T16:17:23;125.07;;;120.57;;
57057;SDS011;55017;52.848;6.748;2022-11-23T16:19:56;123.50;;;119.18;;
57057;SDS011;55017;52.848;6.748;2022-11-23T16:22:30;127.38;;;122.45;;
57057;SDS011;55017;52.848;6.748;2022-11-23T16:25:34;125.35;;;120.95;;